createdAt,value
2023-04-25T00:02:13.402Z,10.16
2023-04-25T00:05:18.377Z,10.22
2023-04-25T00:08:20.637Z,10.24
2023-04-25T00:11:22.555Z,10.21
2023-04-25T00:14:24.512Z,10.21
2023-04-25T00:17:26.675Z,10.28
2023-04-25T00:20:28.761Z,10.26
2023-04-25T00:23:30.843Z,10.20
2023-04-25T00:26:32.719Z,10.18
2023-04-25T00:29:35.140Z,10.08
2023-04-25T00:32:37.258Z,10.12
2023-04-25T00:35:39.540Z,10.17
2023-04-25T00:38:41.595Z,10.17
2023-04-25T00:41:44.184Z,10.16
2023-04-25T00:44:46.534Z,10.21
2023-04-25T00:47:51.303Z,10.15
2023-04-25T00:50:59.102Z,10.19
2023-04-25T00:54:02.600Z,10.20
2023-04-25T00:57:04.529Z,10.18
2023-04-25T01:00:07.918Z,10.13
2023-04-25T01:03:11.189Z,10.12
2023-04-25T01:06:13.636Z,10.17
2023-04-25T01:09:15.966Z,10.05
2023-04-25T01:12:18.168Z,10.04
2023-04-25T01:15:20.191Z,10.14
2023-04-25T01:18:22.537Z,10.16
2023-04-25T01:21:27.338Z,10.14
2023-04-25T01:24:29.385Z,10.15
2023-04-25T01:27:31.854Z,10.16
2023-04-25T01:30:34.578Z,10.09
2023-04-25T01:33:36.800Z,10.13
2023-04-25T01:36:38.839Z,10.08
2023-04-25T01:39:40.972Z,10.03
2023-04-25T01:42:44.570Z,10.11
2023-04-25T01:45:46.592Z,10.14
2023-04-25T01:48:49.024Z,10.18
2023-04-25T01:51:51.119Z,10.08
2023-04-25T01:54:54.739Z,10.07
2023-04-25T01:57:56.672Z,10.16
2023-04-25T02:00:58.763Z,10.15
2023-04-25T02:04:01.408Z,10.10
2023-04-25T02:07:04.675Z,10.09
2023-04-25T02:10:06.887Z,10.14
2023-04-25T02:13:08.874Z,10.15
2023-04-25T02:16:10.731Z,10.21
2023-04-25T02:19:13.374Z,10.18
2023-04-25T02:22:15.538Z,10.21
2023-04-25T02:25:18.398Z,10.17
2023-04-25T02:28:20.566Z,10.10
2023-04-25T02:31:22.511Z,10.09
2023-04-25T02:34:24.443Z,10.08
2023-04-25T02:37:26.274Z,10.06
2023-04-25T02:40:32.040Z,10.06
2023-04-25T02:43:33.925Z,10.12
2023-04-25T02:46:39.424Z,10.16
2023-04-25T02:49:41.859Z,10.08
2023-04-25T02:52:43.753Z,10.01
2023-04-25T02:55:45.564Z,10.02
2023-04-25T02:58:47.401Z,10.05
2023-04-25T03:01:49.320Z,10.11
2023-04-25T03:04:51.279Z,10.09
2023-04-25T03:07:53.118Z,10.09
2023-04-25T03:10:56.687Z,10.07
2023-04-25T03:13:58.599Z,10.16
2023-04-25T03:17:00.675Z,10.19
2023-04-25T03:20:04.964Z,10.07
2023-04-25T03:23:06.853Z,10.04
2023-04-25T03:26:08.756Z,10.03
2023-04-25T03:29:10.737Z,10.07
2023-04-25T03:32:12.708Z,10.08
2023-04-25T03:35:14.556Z,10.02
2023-04-25T03:38:16.777Z,10.11
2023-04-25T03:41:18.642Z,9.98
2023-04-25T03:44:20.648Z,10.00
2023-04-25T03:47:22.588Z,9.98
2023-04-25T03:50:24.782Z,9.98
2023-04-25T03:53:26.812Z,10.00
2023-04-25T03:56:28.678Z,9.96
2023-04-25T03:59:30.736Z,10.02
2023-04-25T04:02:34.159Z,9.94
2023-04-25T04:05:36.394Z,10.00
2023-04-25T04:08:38.316Z,10.04
2023-04-25T04:11:40.641Z,10.15
2023-04-25T04:14:42.578Z,10.27
2023-04-25T04:17:44.406Z,10.23
2023-04-25T04:20:46.512Z,10.32
2023-04-25T04:23:49.358Z,10.48
2023-04-25T04:26:51.806Z,10.50
2023-04-25T04:29:54.378Z,10.52
2023-04-25T04:32:57.518Z,10.28
2023-04-25T04:36:00.026Z,10.35
2023-04-25T04:39:03.031Z,10.47
2023-04-25T04:42:06.099Z,10.49
2023-04-25T04:45:08.580Z,10.45
2023-04-25T04:48:13.069Z,10.52
2023-04-25T04:51:15.153Z,10.61
2023-04-25T04:54:17.016Z,10.57
2023-04-25T04:57:18.868Z,10.64
2023-04-25T05:00:21.906Z,10.73
2023-04-25T05:03:24.065Z,10.66
2023-04-25T05:06:26.853Z,10.78
2023-04-25T05:09:28.693Z,10.75
2023-04-25T05:12:31.487Z,10.87
2023-04-25T05:15:33.337Z,10.79
2023-04-25T05:18:36.216Z,10.73
2023-04-25T05:21:38.164Z,10.71
2023-04-25T05:24:40.173Z,10.65
2023-04-25T05:27:42.032Z,10.72
2023-04-25T05:30:43.908Z,10.87
2023-04-25T05:33:45.854Z,10.69
2023-04-25T05:36:49.496Z,10.86
2023-04-25T05:39:51.509Z,10.82
2023-04-25T05:42:53.370Z,10.90
2023-04-25T05:45:55.425Z,11.02
2023-04-25T05:48:57.539Z,10.97
2023-04-25T05:51:59.750Z,10.92
2023-04-25T05:55:01.710Z,10.79
2023-04-25T05:58:03.724Z,10.75
2023-04-25T06:01:05.916Z,10.73
2023-04-25T06:04:08.057Z,10.80
2023-04-25T06:07:10.350Z,10.54
2023-04-25T06:10:12.347Z,10.55
2023-04-25T06:13:14.459Z,10.72
2023-04-25T06:16:16.520Z,10.51
2023-04-25T06:19:18.358Z,10.40
2023-04-25T06:22:20.269Z,10.23
2023-04-25T06:25:22.392Z,10.30
2023-04-25T06:28:25.438Z,10.44
2023-04-25T06:31:27.607Z,10.63
2023-04-25T06:34:29.582Z,10.63
2023-04-25T06:37:32.301Z,10.41
2023-04-25T06:40:34.179Z,10.27
2023-04-25T06:43:36.226Z,10.34
2023-04-25T06:46:38.837Z,10.39
2023-04-25T06:49:40.894Z,10.33
2023-04-25T06:52:42.764Z,10.39
2023-04-25T06:55:44.682Z,10.14
2023-04-25T06:58:46.495Z,9.99
2023-04-25T07:01:48.798Z,9.60
2023-04-25T07:04:51.017Z,9.43
2023-04-25T07:07:53.036Z,9.03
2023-04-25T07:10:55.113Z,9.18
2023-04-25T07:13:57.164Z,9.07
2023-04-25T07:16:59.140Z,9.11
2023-04-25T07:20:01.465Z,9.06
2023-04-25T07:23:03.509Z,8.96
2023-04-25T07:26:05.437Z,9.04
2023-04-25T07:29:07.369Z,9.12
2023-04-25T07:32:09.525Z,9.06
2023-04-25T07:35:11.384Z,8.99
2023-04-25T07:38:13.288Z,8.97
2023-04-25T07:41:15.224Z,9.04
2023-04-25T07:44:17.058Z,8.92
2023-04-25T07:47:20.381Z,8.92
2023-04-25T07:50:22.508Z,8.92
2023-04-25T07:53:24.572Z,9.16
2023-04-25T07:56:26.580Z,9.13
2023-04-25T07:59:30.230Z,9.12
2023-04-25T08:02:32.845Z,9.01
2023-04-25T08:05:34.920Z,9.04
2023-04-25T08:08:36.966Z,9.01
2023-04-25T08:11:39.505Z,8.95
2023-04-25T08:14:41.459Z,9.06
2023-04-25T08:17:44.983Z,9.01
2023-04-25T08:20:47.461Z,9.08
2023-04-25T08:23:49.331Z,9.07
2023-04-25T08:26:52.032Z,8.94
2023-04-25T08:29:54.051Z,8.97
2023-04-25T08:32:55.977Z,8.90
2023-04-25T08:35:58.863Z,8.87
2023-04-25T08:39:00.697Z,8.79
2023-04-25T08:43:45.063Z,8.58
2023-04-25T08:46:51.204Z,8.58
2023-04-25T08:49:55.112Z,8.74
2023-04-25T08:53:02.663Z,8.91
2023-04-25T08:56:04.867Z,8.98
2023-04-25T08:59:09.052Z,8.75
2023-04-25T09:02:15.582Z,8.69
2023-04-25T09:05:20.199Z,8.98
2023-04-25T09:08:23.942Z,8.88
2023-04-25T09:11:25.941Z,8.90
2023-04-25T09:14:29.045Z,8.94
2023-04-25T09:17:31.299Z,9.20
2023-04-25T09:20:35.321Z,9.23
2023-04-25T09:23:45.690Z,8.97
2023-04-25T09:26:48.796Z,8.74
2023-04-25T09:29:59.379Z,8.41
2023-04-25T09:33:08.737Z,8.41
2023-04-25T09:36:17.109Z,8.41
2023-04-25T09:39:20.628Z,8.62
2023-04-25T09:42:25.147Z,8.69
2023-04-25T09:45:30.410Z,8.63
2023-04-25T09:48:32.551Z,8.62
2023-04-25T09:51:34.551Z,8.44
2023-04-25T09:54:36.612Z,8.25
2023-04-25T09:57:40.954Z,8.41
2023-04-25T10:00:43.112Z,8.36
2023-04-25T10:03:49.260Z,8.32
2023-04-25T10:06:53.438Z,8.45
2023-04-25T10:10:02.874Z,8.53
2023-04-25T10:13:06.906Z,8.48
2023-04-25T10:16:09.553Z,8.62
2023-04-25T10:19:12.178Z,8.69
2023-04-25T10:22:21.681Z,8.81
2023-04-25T10:25:25.067Z,8.81
2023-04-25T10:28:27.051Z,8.60
2023-04-25T10:31:32.021Z,8.69
2023-04-25T10:34:48.083Z,8.68
2023-04-25T10:38:06.145Z,8.49
2023-04-25T10:41:10.213Z,8.39
2023-04-25T10:44:12.082Z,8.19
2023-04-25T10:47:14.037Z,8.02
2023-04-25T10:50:19.823Z,8.22
2023-04-25T10:53:26.211Z,8.31
2023-04-25T10:56:30.581Z,8.28
2023-04-25T10:59:33.301Z,8.44
2023-04-25T11:02:39.201Z,8.60
2023-04-25T11:05:57.342Z,8.72
2023-04-25T11:09:03.158Z,8.68
2023-04-25T11:12:06.366Z,8.58
2023-04-25T11:15:09.239Z,8.61
2023-04-25T11:18:11.282Z,8.27
2023-04-25T11:21:16.789Z,8.45
2023-04-25T11:24:19.018Z,8.26
2023-04-25T11:27:22.352Z,8.26
2023-04-25T11:30:25.933Z,8.22
2023-04-25T11:33:28.564Z,8.36
2023-04-25T11:36:35.280Z,8.39
2023-04-25T11:39:37.440Z,8.50
2023-04-25T11:42:40.434Z,8.50
2023-04-25T11:45:43.064Z,8.35
2023-04-25T11:48:49.135Z,8.06
2023-04-25T11:51:54.284Z,8.17
2023-04-25T11:54:58.019Z,8.04
2023-04-25T11:58:01.419Z,8.08
2023-04-25T12:01:04.093Z,8.08
2023-04-25T12:04:33.646Z,8.10
2023-04-25T12:07:36.335Z,7.90
2023-04-25T12:10:41.364Z,7.83
2023-04-25T12:13:45.143Z,7.85
2023-04-25T12:16:48.132Z,7.69
2023-04-25T12:19:50.086Z,7.61
2023-04-25T12:22:53.243Z,7.69
2023-04-25T12:25:55.457Z,7.80
2023-04-25T12:28:57.532Z,7.88
2023-04-25T12:31:59.949Z,7.87
2023-04-25T12:35:02.385Z,7.77
2023-04-25T12:38:04.475Z,8.02
2023-04-25T12:41:06.987Z,8.06
2023-04-25T12:44:08.945Z,8.05
2023-04-25T12:47:11.112Z,8.00
2023-04-25T12:50:13.287Z,8.09
2023-04-25T12:53:17.969Z,7.99
2023-04-25T12:56:21.479Z,8.05
2023-04-25T12:59:25.531Z,8.20
2023-04-25T13:02:27.734Z,8.22
2023-04-25T13:05:31.333Z,8.31
2023-04-25T13:08:33.400Z,8.42
2023-04-25T13:11:35.429Z,8.31
2023-04-25T13:14:37.581Z,8.24
2023-04-25T13:17:40.009Z,8.16
2023-04-25T13:20:42.095Z,8.22
2023-04-25T13:23:45.708Z,8.38
2023-04-25T13:26:47.637Z,8.24
2023-04-25T13:29:49.534Z,8.35
2023-04-25T13:32:54.030Z,8.19
2023-04-25T13:35:57.447Z,8.27
2023-04-25T13:38:59.254Z,8.39
2023-04-25T13:42:01.430Z,8.38
2023-04-25T13:45:03.979Z,8.34
2023-04-25T13:48:06.168Z,8.34
2023-04-25T13:51:08.145Z,8.54
2023-04-25T13:54:10.214Z,8.74
2023-04-25T13:57:12.516Z,8.84
2023-04-25T14:00:15.029Z,8.95
2023-04-25T14:03:17.398Z,8.88
2023-04-25T14:06:23.805Z,9.19
2023-04-25T14:09:26.780Z,9.06
2023-04-25T14:12:28.726Z,9.07
2023-04-25T14:15:34.725Z,8.96
